sensor_id;sensor_type;location;lat;lon;timestamp;P1;durP1;ratioP1;P2;durP2;ratioP2
37645;SDS011;23489;49.600;6.138;2023-03-01T00:01:24;7.23;;;5.10;;
37645;SDS011;23489;49.600;6.138;2023-03-01T00:03:52;8.10;;;5.17;;
37645;SDS011;23489;49.600;6.138;2023-03-01T00:06:18;8.98;;;6.70;;
37645;SDS011;23489;49.600;6.138;2023-03-01T00:08:45;10.43;;;5.57;;
37645;SDS011;23489;49.600;6.138;2023-03-01T00:13:36;9.73;;;5.20;;
37645;SDS011;23489;49.600;6.138;2023-03-01T00:16:05;6.60;;;4.97;;
37645;SDS011;23489;49.600;6.138;2023-03-01T00:18:33;9.90;;;4.97;;
37645;SDS011;23489;49.600;6.138;2023-03-01T00:20:59;8.00;;;5.60;;
37645;SDS011;23489;49.600;6.138;2023-03-01T00:23:25;6.77;;;4.90;;
37645;SDS011;23489;49.600;6.138;2023-03-01T00:25:50;7.63;;;5.70;;
37645;SDS011;23489;49.600;6.138;2023-03-01T00:28:17;8.70;;;5.63;;
37645;SDS011;23489;49.600;6.138;2023-03-01T00:30:43;9.27;;;5.23;;
37645;SDS011;23489;49.600;6.138;2023-03-01T00:33:09;8.87;;;5.30;;
37645;SDS011;23489;49.600;6.138;2023-03-01T00:35:35;7.23;;;5.50;;
37645;SDS011;23489;49.600;6.138;2023-03-01T00:38:01;8.60;;;5.47;;
37645;SDS011;23489;49.600;6.138;2023-03-01T00:40:27;8.37;;;5.77;;
37645;SDS011;23489;49.600;6.138;2023-03-01T00:42:54;7.73;;;5.47;;
37645;SDS011;23489;49.600;6.138;2023-03-01T00:45:20;9.73;;;6.00;;
37645;SDS011;23489;49.600;6.138;2023-03-01T00:47:47;7.43;;;5.93;;
37645;SDS011;23489;49.600;6.138;2023-03-01T00:50:14;7.23;;;5.20;;
37645;SDS011;23489;49.600;6.138;2023-03-01T00:52:40;10.93;;;4.70;;
37645;SDS011;23489;49.600;6.138;2023-03-01T00:55:06;7.83;;;5.57;;
37645;SDS011;23489;49.600;6.138;2023-03-01T00:57:33;10.30;;;5.57;;
37645;SDS011;23489;49.600;6.138;2023-03-01T00:59:58;8.17;;;5.53;;
37645;SDS011;23489;49.600;6.138;2023-03-01T01:02:24;11.60;;;6.13;;
37645;SDS011;23489;49.600;6.138;2023-03-01T01:04:50;8.77;;;5.57;;
37645;SDS011;23489;49.600;6.138;2023-03-01T01:07:16;8.17;;;5.97;;
37645;SDS011;23489;49.600;6.138;2023-03-01T01:09:42;8.30;;;6.27;;
37645;SDS011;23489;49.600;6.138;2023-03-01T01:12:08;8.13;;;5.83;;
37645;SDS011;23489;49.600;6.138;2023-03-01T01:14:34;8.03;;;5.53;;
37645;SDS011;23489;49.600;6.138;2023-03-01T01:17:00;10.90;;;6.27;;
37645;SDS011;23489;49.600;6.138;2023-03-01T01:19:25;8.90;;;6.07;;
37645;SDS011;23489;49.600;6.138;2023-03-01T01:21:51;9.93;;;6.47;;
37645;SDS011;23489;49.600;6.138;2023-03-01T01:24:18;7.30;;;5.70;;
37645;SDS011;23489;49.600;6.138;2023-03-01T01:26:44;10.20;;;6.47;;
37645;SDS011;23489;49.600;6.138;2023-03-01T01:29:11;11.33;;;6.43;;
37645;SDS011;23489;49.600;6.138;2023-03-01T01:31:38;10.00;;;6.13;;
37645;SDS011;23489;49.600;6.138;2023-03-01T01:34:06;9.47;;;6.10;;
37645;SDS011;23489;49.600;6.138;2023-03-01T01:36:34;12.90;;;6.70;;
37645;SDS011;23489;49.600;6.138;2023-03-01T01:39:00;8.03;;;6.37;;
37645;SDS011;23489;49.600;6.138;2023-03-01T01:41:27;10.17;;;5.97;;
37645;SDS011;23489;49.600;6.138;2023-03-01T01:44:10;8.57;;;5.87;;
37645;SDS011;23489;49.600;6.138;2023-03-01T01:47:15;12.60;;;6.73;;
37645;SDS011;23489;49.600;6.138;2023-03-01T01:49:46;9.60;;;5.97;;
37645;SDS011;23489;49.600;6.138;2023-03-01T01:57:30;9.37;;;6.37;;
37645;SDS011;23489;49.600;6.138;2023-03-01T02:00:00;11.10;;;6.93;;
37645;SDS011;23489;49.600;6.138;2023-03-01T02:02:38;10.33;;;6.63;;
37645;SDS011;23489;49.600;6.138;2023-03-01T02:05:08;9.13;;;6.27;;
37645;SDS011;23489;49.600;6.138;2023-03-01T02:07:42;9.37;;;6.67;;
37645;SDS011;23489;49.600;6.138;2023-03-01T02:10:09;8.90;;;6.57;;
37645;SDS011;23489;49.600;6.138;2023-03-01T02:12:35;11.53;;;7.13;;
37645;SDS011;23489;49.600;6.138;2023-03-01T02:15:01;11.30;;;6.80;;
37645;SDS011;23489;49.600;6.138;2023-03-01T02:17:28;10.10;;;6.77;;
37645;SDS011;23489;49.600;6.138;2023-03-01T02:22:32;11.37;;;6.87;;
37645;SDS011;23489;49.600;6.138;2023-03-01T02:30:40;10.93;;;6.97;;
37645;SDS011;23489;49.600;6.138;2023-03-01T02:33:27;12.93;;;7.47;;
37645;SDS011;23489;49.600;6.138;2023-03-01T02:35:58;12.20;;;7.47;;
37645;SDS011;23489;49.600;6.138;2023-03-01T02:38:25;13.10;;;7.27;;
37645;SDS011;23489;49.600;6.138;2023-03-01T02:40:52;9.60;;;6.93;;
37645;SDS011;23489;49.600;6.138;2023-03-01T02:43:20;13.30;;;6.77;;
37645;SDS011;23489;49.600;6.138;2023-03-01T02:45:51;12.27;;;7.57;;
37645;SDS011;23489;49.600;6.138;2023-03-01T02:48:18;11.90;;;6.73;;
37645;SDS011;23489;49.600;6.138;2023-03-01T02:53:41;11.63;;;7.37;;
37645;SDS011;23489;49.600;6.138;2023-03-01T02:56:18;9.43;;;6.70;;
37645;SDS011;23489;49.600;6.138;2023-03-01T02:58:44;10.23;;;7.40;;
37645;SDS011;23489;49.600;6.138;2023-03-01T03:01:12;10.87;;;7.10;;
37645;SDS011;23489;49.600;6.138;2023-03-01T03:03:40;13.83;;;7.63;;
37645;SDS011;23489;49.600;6.138;2023-03-01T03:06:06;11.40;;;7.40;;
37645;SDS011;23489;49.600;6.138;2023-03-01T03:08:32;11.47;;;7.07;;
37645;SDS011;23489;49.600;6.138;2023-03-01T03:10:58;12.23;;;7.30;;
37645;SDS011;23489;49.600;6.138;2023-03-01T03:13:24;12.97;;;8.23;;
37645;SDS011;23489;49.600;6.138;2023-03-01T03:15:55;15.57;;;7.53;;
37645;SDS011;23489;49.600;6.138;2023-03-01T03:18:21;10.63;;;7.10;;
37645;SDS011;23489;49.600;6.138;2023-03-01T03:20:50;11.70;;;7.13;;
37645;SDS011;23489;49.600;6.138;2023-03-01T03:23:18;12.67;;;7.77;;
37645;SDS011;23489;49.600;6.138;2023-03-01T03:25:50;11.63;;;7.53;;
37645;SDS011;23489;49.600;6.138;2023-03-01T03:28:16;12.73;;;7.87;;
37645;SDS011;23489;49.600;6.138;2023-03-01T03:30:42;12.27;;;7.70;;
37645;SDS011;23489;49.600;6.138;2023-03-01T03:33:12;12.57;;;8.07;;
37645;SDS011;23489;49.600;6.138;2023-03-01T03:35:43;14.37;;;7.83;;
37645;SDS011;23489;49.600;6.138;2023-03-01T03:38:11;10.60;;;7.03;;
37645;SDS011;23489;49.600;6.138;2023-03-01T03:40:45;12.33;;;7.63;;
37645;SDS011;23489;49.600;6.138;2023-03-01T03:43:14;11.77;;;7.27;;
37645;SDS011;23489;49.600;6.138;2023-03-01T03:45:41;13.70;;;7.40;;
37645;SDS011;23489;49.600;6.138;2023-03-01T03:48:09;14.17;;;7.83;;
37645;SDS011;23489;49.600;6.138;2023-03-01T03:50:35;14.70;;;8.03;;
37645;SDS011;23489;49.600;6.138;2023-03-01T03:53:03;11.57;;;7.80;;
37645;SDS011;23489;49.600;6.138;2023-03-01T03:55:30;15.37;;;8.07;;
37645;SDS011;23489;49.600;6.138;2023-03-01T03:57:59;12.93;;;8.03;;
37645;SDS011;23489;49.600;6.138;2023-03-01T04:00:33;15.17;;;8.40;;
37645;SDS011;23489;49.600;6.138;2023-03-01T04:02:59;13.07;;;7.87;;
37645;SDS011;23489;49.600;6.138;2023-03-01T04:05:25;13.00;;;8.40;;
37645;SDS011;23489;49.600;6.138;2023-03-01T04:07:51;9.83;;;7.50;;
37645;SDS011;23489;49.600;6.138;2023-03-01T04:10:30;10.70;;;7.80;;
37645;SDS011;23489;49.600;6.138;2023-03-01T04:12:57;13.80;;;8.60;;
37645;SDS011;23489;49.600;6.138;2023-03-01T04:15:24;14.37;;;8.20;;
37645;SDS011;23489;49.600;6.138;2023-03-01T04:17:52;14.53;;;8.80;;
37645;SDS011;23489;49.600;6.138;2023-03-01T04:20:19;14.23;;;8.30;;
37645;SDS011;23489;49.600;6.138;2023-03-01T04:22:49;12.87;;;7.70;;
37645;SDS011;23489;49.600;6.138;2023-03-01T04:25:16;13.70;;;8.63;;
37645;SDS011;23489;49.600;6.138;2023-03-01T04:27:42;15.40;;;8.67;;
37645;SDS011;23489;49.600;6.138;2023-03-01T04:30:08;13.23;;;8.40;;
37645;SDS011;23489;49.600;6.138;2023-03-01T04:32:34;13.77;;;8.33;;
37645;SDS011;23489;49.600;6.138;2023-03-01T04:34:59;17.00;;;8.43;;
37645;SDS011;23489;49.600;6.138;2023-03-01T04:37:25;16.70;;;8.93;;
37645;SDS011;23489;49.600;6.138;2023-03-01T04:39:52;14.73;;;8.77;;
37645;SDS011;23489;49.600;6.138;2023-03-01T04:42:18;14.63;;;8.73;;
37645;SDS011;23489;49.600;6.138;2023-03-01T04:44:44;16.67;;;9.07;;
37645;SDS011;23489;49.600;6.138;2023-03-01T04:47:11;16.10;;;9.03;;
37645;SDS011;23489;49.600;6.138;2023-03-01T04:49:37;14.87;;;8.80;;
37645;SDS011;23489;49.600;6.138;2023-03-01T04:52:03;16.57;;;9.27;;
37645;SDS011;23489;49.600;6.138;2023-03-01T04:54:29;16.50;;;9.13;;
37645;SDS011;23489;49.600;6.138;2023-03-01T04:56:56;13.57;;;8.43;;
37645;SDS011;23489;49.600;6.138;2023-03-01T04:59:23;15.63;;;9.33;;
37645;SDS011;23489;49.600;6.138;2023-03-01T05:01:49;15.60;;;9.60;;
37645;SDS011;23489;49.600;6.138;2023-03-01T05:04:15;18.27;;;9.90;;
37645;SDS011;23489;49.600;6.138;2023-03-01T05:06:41;14.83;;;9.47;;
37645;SDS011;23489;49.600;6.138;2023-03-01T05:09:06;15.03;;;9.17;;
37645;SDS011;23489;49.600;6.138;2023-03-01T05:11:32;14.37;;;8.13;;
37645;SDS011;23489;49.600;6.138;2023-03-01T05:14:01;17.77;;;9.80;;
37645;SDS011;23489;49.600;6.138;2023-03-01T05:16:27;19.03;;;9.03;;
37645;SDS011;23489;49.600;6.138;2023-03-01T05:18:53;16.63;;;9.80;;
37645;SDS011;23489;49.600;6.138;2023-03-01T05:21:20;16.50;;;8.93;;
37645;SDS011;23489;49.600;6.138;2023-03-01T05:23:46;17.43;;;9.73;;
37645;SDS011;23489;49.600;6.138;2023-03-01T05:26:12;16.90;;;9.47;;
37645;SDS011;23489;49.600;6.138;2023-03-01T05:28:39;17.00;;;9.83;;
37645;SDS011;23489;49.600;6.138;2023-03-01T05:31:05;17.07;;;9.60;;
37645;SDS011;23489;49.600;6.138;2023-03-01T05:33:37;18.97;;;9.73;;
37645;SDS011;23489;49.600;6.138;2023-03-01T05:36:04;19.90;;;10.50;;
37645;SDS011;23489;49.600;6.138;2023-03-01T05:38:31;15.07;;;9.00;;
37645;SDS011;23489;49.600;6.138;2023-03-01T05:40:56;16.43;;;10.20;;
37645;SDS011;23489;49.600;6.138;2023-03-01T05:43:22;19.77;;;9.87;;
37645;SDS011;23489;49.600;6.138;2023-03-01T05:45:48;16.53;;;9.80;;
37645;SDS011;23489;49.600;6.138;2023-03-01T05:48:14;15.97;;;9.90;;
37645;SDS011;23489;49.600;6.138;2023-03-01T05:50:40;19.73;;;10.10;;
37645;SDS011;23489;49.600;6.138;2023-03-01T05:53:15;16.87;;;10.60;;
37645;SDS011;23489;49.600;6.138;2023-03-01T05:55:43;18.37;;;10.40;;
37645;SDS011;23489;49.600;6.138;2023-03-01T05:58:12;19.07;;;10.50;;
37645;SDS011;23489;49.600;6.138;2023-03-01T06:00:40;16.70;;;9.13;;
37645;SDS011;23489;49.600;6.138;2023-03-01T06:03:06;16.50;;;10.30;;
37645;SDS011;23489;49.600;6.138;2023-03-01T06:05:31;14.83;;;9.23;;
37645;SDS011;23489;49.600;6.138;2023-03-01T06:08:00;17.23;;;9.90;;
37645;SDS011;23489;49.600;6.138;2023-03-01T06:10:27;16.40;;;9.53;;
37645;SDS011;23489;49.600;6.138;2023-03-01T06:12:53;17.47;;;10.40;;
37645;SDS011;23489;49.600;6.138;2023-03-01T06:15:19;15.30;;;9.83;;
37645;SDS011;23489;49.600;6.138;2023-03-01T06:17:45;18.30;;;9.63;;
37645;SDS011;23489;49.600;6.138;2023-03-01T06:22:37;19.00;;;10.47;;
37645;SDS011;23489;49.600;6.138;2023-03-01T06:25:03;16.40;;;9.83;;
37645;SDS011;23489;49.600;6.138;2023-03-01T06:27:30;17.73;;;10.40;;
37645;SDS011;23489;49.600;6.138;2023-03-01T06:29:55;14.80;;;9.63;;
37645;SDS011;23489;49.600;6.138;2023-03-01T06:32:21;16.37;;;9.73;;
37645;SDS011;23489;49.600;6.138;2023-03-01T06:34:46;16.80;;;11.13;;
37645;SDS011;23489;49.600;6.138;2023-03-01T06:37:12;18.83;;;10.57;;
37645;SDS011;23489;49.600;6.138;2023-03-01T06:39:38;16.60;;;9.70;;
37645;SDS011;23489;49.600;6.138;2023-03-01T06:42:04;16.90;;;9.90;;
37645;SDS011;23489;49.600;6.138;2023-03-01T06:44:30;19.23;;;10.30;;
37645;SDS011;23489;49.600;6.138;2023-03-01T06:46:56;17.43;;;10.27;;
37645;SDS011;23489;49.600;6.138;2023-03-01T06:49:21;17.70;;;10.47;;
37645;SDS011;23489;49.600;6.138;2023-03-01T06:51:47;17.50;;;10.20;;
37645;SDS011;23489;49.600;6.138;2023-03-01T06:54:13;18.63;;;10.93;;
37645;SDS011;23489;49.600;6.138;2023-03-01T06:56:38;20.13;;;10.60;;
37645;SDS011;23489;49.600;6.138;2023-03-01T06:59:04;20.40;;;11.10;;
37645;SDS011;23489;49.600;6.138;2023-03-01T07:01:30;15.50;;;9.87;;
37645;SDS011;23489;49.600;6.138;2023-03-01T07:03:56;17.90;;;10.97;;
37645;SDS011;23489;49.600;6.138;2023-03-01T07:06:22;20.83;;;10.47;;
37645;SDS011;23489;49.600;6.138;2023-03-01T07:08:48;17.47;;;10.40;;
37645;SDS011;23489;49.600;6.138;2023-03-01T07:11:14;23.20;;;11.10;;
37645;SDS011;23489;49.600;6.138;2023-03-01T07:13:40;19.60;;;10.50;;
37645;SDS011;23489;49.600;6.138;2023-03-01T07:16:06;21.43;;;11.33;;
37645;SDS011;23489;49.600;6.138;2023-03-01T07:18:32;15.77;;;10.03;;
37645;SDS011;23489;49.600;6.138;2023-03-01T07:20:57;18.73;;;11.33;;
37645;SDS011;23489;49.600;6.138;2023-03-01T07:23:23;19.13;;;10.17;;
37645;SDS011;23489;49.600;6.138;2023-03-01T07:25:55;17.80;;;10.73;;
37645;SDS011;23489;49.600;6.138;2023-03-01T07:28:22;17.03;;;9.97;;
37645;SDS011;23489;49.600;6.138;2023-03-01T07:30:48;20.50;;;11.07;;
37645;SDS011;23489;49.600;6.138;2023-03-01T07:33:14;15.90;;;10.93;;
37645;SDS011;23489;49.600;6.138;2023-03-01T07:35:39;17.60;;;10.50;;
37645;SDS011;23489;49.600;6.138;2023-03-01T07:38:05;21.67;;;10.50;;
37645;SDS011;23489;49.600;6.138;2023-03-01T07:40:31;17.13;;;10.47;;
37645;SDS011;23489;49.600;6.138;2023-03-01T07:42:57;20.50;;;10.93;;
37645;SDS011;23489;49.600;6.138;2023-03-01T07:45:23;16.63;;;10.43;;
37645;SDS011;23489;49.600;6.138;2023-03-01T07:47:50;19.07;;;10.70;;
37645;SDS011;23489;49.600;6.138;2023-03-01T07:50:16;18.83;;;10.83;;
37645;SDS011;23489;49.600;6.138;2023-03-01T07:52:44;18.23;;;9.80;;
37645;SDS011;23489;49.600;6.138;2023-03-01T07:55:10;18.60;;;10.50;;
37645;SDS011;23489;49.600;6.138;2023-03-01T07:57:36;16.93;;;10.17;;
37645;SDS011;23489;49.600;6.138;2023-03-01T08:00:02;16.35;;;9.75;;
37645;SDS011;23489;49.600;6.138;2023-03-01T08:02:37;16.33;;;10.07;;
37645;SDS011;23489;49.600;6.138;2023-03-01T08:05:03;17.25;;;11.30;;
37645;SDS011;23489;49.600;6.138;2023-03-01T08:07:29;18.13;;;10.70;;
37645;SDS011;23489;49.600;6.138;2023-03-01T08:09:55;15.45;;;10.07;;
37645;SDS011;23489;49.600;6.138;2023-03-01T08:12:20;18.63;;;10.85;;
37645;SDS011;23489;49.600;6.138;2023-03-01T08:14:46;19.75;;;10.52;;
37645;SDS011;23489;49.600;6.138;2023-03-01T08:17:13;15.63;;;10.80;;
37645;SDS011;23489;49.600;6.138;2023-03-01T08:19:39;18.63;;;11.77;;
37645;SDS011;23489;49.600;6.138;2023-03-01T08:22:05;17.70;;;11.18;;
37645;SDS011;23489;49.600;6.138;2023-03-01T08:24:30;16.50;;;11.27;;
37645;SDS011;23489;49.600;6.138;2023-03-01T08:26:56;16.23;;;11.05;;
37645;SDS011;23489;49.600;6.138;2023-03-01T08:29:22;18.92;;;11.45;;
37645;SDS011;23489;49.600;6.138;2023-03-01T08:31:49;17.80;;;10.77;;
37645;SDS011;23489;49.600;6.138;2023-03-01T08:34:17;16.60;;;11.38;;
37645;SDS011;23489;49.600;6.138;2023-03-01T08:36:44;18.83;;;12.05;;
37645;SDS011;23489;49.600;6.138;2023-03-01T08:39:15;16.17;;;10.07;;
37645;SDS011;23489;49.600;6.138;2023-03-01T08:41:42;17.50;;;11.13;;
37645;SDS011;23489;49.600;6.138;2023-03-01T08:44:09;16.65;;;11.60;;
37645;SDS011;23489;49.600;6.138;2023-03-01T08:46:38;18.75;;;11.27;;
37645;SDS011;23489;49.600;6.138;2023-03-01T08:49:05;17.42;;;11.85;;
37645;SDS011;23489;49.600;6.138;2023-03-01T08:51:52;18.90;;;11.77;;
37645;SDS011;23489;49.600;6.138;2023-03-01T08:54:19;16.40;;;11.63;;
37645;SDS011;23489;49.600;6.138;2023-03-01T08:56:46;17.67;;;11.52;;
37645;SDS011;23489;49.600;6.138;2023-03-01T08:59:12;18.52;;;11.10;;
37645;SDS011;23489;49.600;6.138;2023-03-01T09:01:39;17.95;;;10.60;;
37645;SDS011;23489;49.600;6.138;2023-03-01T09:04:08;15.80;;;10.88;;
37645;SDS011;23489;49.600;6.138;2023-03-01T09:06:34;17.95;;;11.35;;
37645;SDS011;23489;49.600;6.138;2023-03-01T09:09:01;16.95;;;11.25;;
37645;SDS011;23489;49.600;6.138;2023-03-01T09:11:28;15.10;;;10.45;;
37645;SDS011;23489;49.600;6.138;2023-03-01T09:13:54;16.20;;;11.55;;
37645;SDS011;23489;49.600;6.138;2023-03-01T09:16:21;15.27;;;11.02;;
37645;SDS011;23489;49.600;6.138;2023-03-01T09:18:51;16.15;;;11.13;;
37645;SDS011;23489;49.600;6.138;2023-03-01T09:21:19;17.85;;;11.52;;
37645;SDS011;23489;49.600;6.138;2023-03-01T09:23:48;18.48;;;11.50;;
37645;SDS011;23489;49.600;6.138;2023-03-01T09:26:16;17.35;;;10.75;;
37645;SDS011;23489;49.600;6.138;2023-03-01T09:28:47;18.05;;;11.60;;
37645;SDS011;23489;49.600;6.138;2023-03-01T09:31:15;18.67;;;11.25;;
37645;SDS011;23489;49.600;6.138;2023-03-01T09:33:45;18.27;;;10.52;;
37645;SDS011;23489;49.600;6.138;2023-03-01T09:36:13;22.15;;;11.77;;
37645;SDS011;23489;49.600;6.138;2023-03-01T09:38:40;17.30;;;11.00;;
37645;SDS011;23489;49.600;6.138;2023-03-01T09:41:10;18.48;;;10.98;;
37645;SDS011;23489;49.600;6.138;2023-03-01T09:46:13;18.27;;;11.38;;
37645;SDS011;23489;49.600;6.138;2023-03-01T09:51:26;17.70;;;11.32;;
37645;SDS011;23489;49.600;6.138;2023-03-01T09:53:55;16.23;;;10.90;;
37645;SDS011;23489;49.600;6.138;2023-03-01T09:56:24;16.38;;;10.93;;
37645;SDS011;23489;49.600;6.138;2023-03-01T10:01:44;17.48;;;11.38;;
37645;SDS011;23489;49.600;6.138;2023-03-01T10:04:45;17.17;;;11.00;;
37645;SDS011;23489;49.600;6.138;2023-03-01T10:07:19;20.27;;;11.80;;
37645;SDS011;23489;49.600;6.138;2023-03-01T10:09:54;17.55;;;11.73;;
37645;SDS011;23489;49.600;6.138;2023-03-01T10:12:22;18.00;;;11.77;;
37645;SDS011;23489;49.600;6.138;2023-03-01T10:15:14;16.42;;;11.45;;
37645;SDS011;23489;49.600;6.138;2023-03-01T10:20:24;17.15;;;11.80;;
37645;SDS011;23489;49.600;6.138;2023-03-01T10:22:55;16.85;;;11.27;;
37645;SDS011;23489;49.600;6.138;2023-03-01T10:25:30;21.38;;;14.05;;
37645;SDS011;23489;49.600;6.138;2023-03-01T10:28:18;19.20;;;12.65;;
37645;SDS011;23489;49.600;6.138;2023-03-01T10:31:03;20.63;;;14.25;;
37645;SDS011;23489;49.600;6.138;2023-03-01T10:33:30;18.55;;;12.45;;
37645;SDS011;23489;49.600;6.138;2023-03-01T10:36:00;17.00;;;11.73;;
37645;SDS011;23489;49.600;6.138;2023-03-01T10:38:26;17.55;;;11.45;;
37645;SDS011;23489;49.600;6.138;2023-03-01T10:43:46;16.63;;;12.25;;
37645;SDS011;23489;49.600;6.138;2023-03-01T10:49:34;17.63;;;12.85;;
37645;SDS011;23489;49.600;6.138;2023-03-01T10:51:40;17.50;;;11.80;;
37645;SDS011;23489;49.600;6.138;2023-03-01T10:56:54;19.10;;;12.13;;
37645;SDS011;23489;49.600;6.138;2023-03-01T11:02:28;17.42;;;11.70;;
37645;SDS011;23489;49.600;6.138;2023-03-01T11:05:01;17.77;;;12.05;;
37645;SDS011;23489;49.600;6.138;2023-03-01T11:10:16;19.67;;;12.65;;
37645;SDS011;23489;49.600;6.138;2023-03-01T11:12:43;20.13;;;12.07;;
37645;SDS011;23489;49.600;6.138;2023-03-01T11:15:19;21.88;;;11.85;;
37645;SDS011;23489;49.600;6.138;2023-03-01T11:17:47;20.15;;;11.63;;
37645;SDS011;23489;49.600;6.138;2023-03-01T11:22:42;21.10;;;12.90;;
37645;SDS011;23489;49.600;6.138;2023-03-01T11:25:13;16.02;;;10.75;;
37645;SDS011;23489;49.600;6.138;2023-03-01T11:27:44;18.58;;;12.23;;
37645;SDS011;23489;49.600;6.138;2023-03-01T11:30:18;22.40;;;12.38;;
37645;SDS011;23489;49.600;6.138;2023-03-01T11:32:57;17.52;;;11.60;;
37645;SDS011;23489;49.600;6.138;2023-03-01T11:35:36;19.05;;;12.77;;
37645;SDS011;23489;49.600;6.138;2023-03-01T11:38:15;22.73;;;12.85;;
37645;SDS011;23489;49.600;6.138;2023-03-01T11:40:48;22.17;;;12.55;;
37645;SDS011;23489;49.600;6.138;2023-03-01T11:43:33;21.45;;;12.57;;
37645;SDS011;23489;49.600;6.138;2023-03-01T11:51:49;21.45;;;12.18;;
37645;SDS011;23489;49.600;6.138;2023-03-01T11:57:00;18.95;;;12.98;;
37645;SDS011;23489;49.600;6.138;2023-03-01T12:08:26;22.02;;;13.82;;
37645;SDS011;23489;49.600;6.138;2023-03-01T12:14:13;20.48;;;11.63;;
37645;SDS011;23489;49.600;6.138;2023-03-01T12:16:51;18.13;;;11.40;;
37645;SDS011;23489;49.600;6.138;2023-03-01T12:19:41;21.23;;;11.88;;
37645;SDS011;23489;49.600;6.138;2023-03-01T12:25:13;21.45;;;12.52;;
37645;SDS011;23489;49.600;6.138;2023-03-01T12:30:35;18.42;;;12.02;;
37645;SDS011;23489;49.600;6.138;2023-03-01T12:36:05;20.92;;;12.38;;
37645;SDS011;23489;49.600;6.138;2023-03-01T12:38:40;18.67;;;12.00;;
37645;SDS011;23489;49.600;6.138;2023-03-01T12:44:15;20.50;;;12.60;;
37645;SDS011;23489;49.600;6.138;2023-03-01T12:52:16;18.45;;;11.57;;
37645;SDS011;23489;49.600;6.138;2023-03-01T12:54:48;20.13;;;12.40;;
37645;SDS011;23489;49.600;6.138;2023-03-01T13:00:17;18.88;;;12.02;;
37645;SDS011;23489;49.600;6.138;2023-03-01T13:11:42;16.98;;;11.05;;
37645;SDS011;23489;49.600;6.138;2023-03-01T13:16:46;20.15;;;13.30;;
37645;SDS011;23489;49.600;6.138;2023-03-01T13:21:57;18.98;;;11.80;;
37645;SDS011;23489;49.600;6.138;2023-03-01T13:24:24;18.55;;;12.27;;
37645;SDS011;23489;49.600;6.138;2023-03-01T13:29:43;19.48;;;11.68;;
37645;SDS011;23489;49.600;6.138;2023-03-01T13:35:01;22.25;;;12.13;;
37645;SDS011;23489;49.600;6.138;2023-03-01T13:37:34;19.38;;;11.02;;
37645;SDS011;23489;49.600;6.138;2023-03-01T13:40:03;21.73;;;11.93;;
37645;SDS011;23489;49.600;6.138;2023-03-01T13:42:50;21.42;;;12.93;;
37645;SDS011;23489;49.600;6.138;2023-03-01T13:48:25;17.58;;;11.30;;
37645;SDS011;23489;49.600;6.138;2023-03-01T13:50:55;18.38;;;11.70;;
37645;SDS011;23489;49.600;6.138;2023-03-01T13:53:26;18.05;;;11.60;;
37645;SDS011;23489;49.600;6.138;2023-03-01T13:55:57;20.00;;;11.93;;
37645;SDS011;23489;49.600;6.138;2023-03-01T13:58:30;19.17;;;11.90;;
37645;SDS011;23489;49.600;6.138;2023-03-01T14:03:24;21.33;;;11.02;;
37645;SDS011;23489;49.600;6.138;2023-03-01T14:05:58;18.50;;;11.05;;
37645;SDS011;23489;49.600;6.138;2023-03-01T14:08:26;21.13;;;10.98;;
37645;SDS011;23489;49.600;6.138;2023-03-01T14:11:00;20.23;;;11.88;;
37645;SDS011;23489;49.600;6.138;2023-03-01T14:21:43;16.73;;;11.05;;
37645;SDS011;23489;49.600;6.138;2023-03-01T14:24:22;16.95;;;10.65;;
37645;SDS011;23489;49.600;6.138;2023-03-01T14:26:49;15.93;;;10.93;;
37645;SDS011;23489;49.600;6.138;2023-03-01T14:29:28;18.48;;;11.48;;
37645;SDS011;23489;49.600;6.138;2023-03-01T14:32:20;15.15;;;10.57;;
37645;SDS011;23489;49.600;6.138;2023-03-01T14:34:50;16.15;;;10.50;;
37645;SDS011;23489;49.600;6.138;2023-03-01T14:39:47;17.13;;;10.52;;
37645;SDS011;23489;49.600;6.138;2023-03-01T14:42:14;17.77;;;11.57;;
37645;SDS011;23489;49.600;6.138;2023-03-01T14:44:42;15.63;;;9.90;;
37645;SDS011;23489;49.600;6.138;2023-03-01T14:47:11;18.95;;;11.45;;
37645;SDS011;23489;49.600;6.138;2023-03-01T14:49:40;15.75;;;10.32;;
37645;SDS011;23489;49.600;6.138;2023-03-01T14:52:07;17.40;;;11.30;;
37645;SDS011;23489;49.600;6.138;2023-03-01T14:54:44;16.05;;;10.15;;
37645;SDS011;23489;49.600;6.138;2023-03-01T14:57:14;18.35;;;11.55;;
37645;SDS011;23489;49.600;6.138;2023-03-01T14:59:42;15.88;;;9.50;;
37645;SDS011;23489;49.600;6.138;2023-03-01T15:02:11;17.60;;;10.75;;
37645;SDS011;23489;49.600;6.138;2023-03-01T15:04:57;14.95;;;10.57;;
37645;SDS011;23489;49.600;6.138;2023-03-01T15:07:33;16.25;;;10.02;;
37645;SDS011;23489;49.600;6.138;2023-03-01T15:10:03;16.30;;;10.88;;
37645;SDS011;23489;49.600;6.138;2023-03-01T15:14:56;16.67;;;10.93;;
37645;SDS011;23489;49.600;6.138;2023-03-01T15:17:37;14.60;;;10.63;;
37645;SDS011;23489;49.600;6.138;2023-03-01T15:20:05;18.35;;;10.68;;
37645;SDS011;23489;49.600;6.138;2023-03-01T15:22:43;17.67;;;10.38;;
37645;SDS011;23489;49.600;6.138;2023-03-01T15:25:14;18.27;;;10.90;;
37645;SDS011;23489;49.600;6.138;2023-03-01T15:27:47;15.77;;;10.45;;
37645;SDS011;23489;49.600;6.138;2023-03-01T15:30:20;17.02;;;11.07;;
37645;SDS011;23489;49.600;6.138;2023-03-01T15:33:20;22.90;;;11.00;;
37645;SDS011;23489;49.600;6.138;2023-03-01T15:36:00;21.20;;;10.85;;
37645;SDS011;23489;49.600;6.138;2023-03-01T15:38:35;16.15;;;10.52;;
37645;SDS011;23489;49.600;6.138;2023-03-01T15:41:26;17.85;;;10.07;;
37645;SDS011;23489;49.600;6.138;2023-03-01T15:44:16;17.00;;;10.30;;
37645;SDS011;23489;49.600;6.138;2023-03-01T15:46:45;16.52;;;10.43;;
37645;SDS011;23489;49.600;6.138;2023-03-01T15:52:00;16.25;;;10.40;;
37645;SDS011;23489;49.600;6.138;2023-03-01T15:54:26;15.30;;;10.43;;
37645;SDS011;23489;49.600;6.138;2023-03-01T15:56:53;17.23;;;10.82;;
37645;SDS011;23489;49.600;6.138;2023-03-01T15:59:19;20.67;;;11.63;;
37645;SDS011;23489;49.600;6.138;2023-03-01T16:01:45;16.27;;;9.85;;
37645;SDS011;23489;49.600;6.138;2023-03-01T16:04:11;13.65;;;9.85;;
37645;SDS011;23489;49.600;6.138;2023-03-01T16:06:41;15.18;;;10.57;;
37645;SDS011;23489;49.600;6.138;2023-03-01T16:09:07;16.35;;;10.50;;
37645;SDS011;23489;49.600;6.138;2023-03-01T16:11:33;16.45;;;11.10;;
37645;SDS011;23489;49.600;6.138;2023-03-01T16:14:01;17.98;;;10.48;;
37645;SDS011;23489;49.600;6.138;2023-03-01T16:16:27;16.30;;;10.13;;
37645;SDS011;23489;49.600;6.138;2023-03-01T16:18:53;15.88;;;10.52;;
37645;SDS011;23489;49.600;6.138;2023-03-01T16:21:20;16.20;;;9.45;;
37645;SDS011;23489;49.600;6.138;2023-03-01T16:23:48;16.08;;;9.93;;
37645;SDS011;23489;49.600;6.138;2023-03-01T16:26:14;15.05;;;9.10;;
37645;SDS011;23489;49.600;6.138;2023-03-01T16:28:41;17.10;;;10.43;;
37645;SDS011;23489;49.600;6.138;2023-03-01T16:31:08;12.40;;;8.90;;
37645;SDS011;23489;49.600;6.138;2023-03-01T16:33:34;13.57;;;9.27;;
37645;SDS011;23489;49.600;6.138;2023-03-01T16:36:01;13.95;;;8.80;;
37645;SDS011;23489;49.600;6.138;2023-03-01T16:38:34;14.82;;;9.50;;
37645;SDS011;23489;49.600;6.138;2023-03-01T16:41:00;15.45;;;8.55;;
37645;SDS011;23489;49.600;6.138;2023-03-01T16:43:25;15.52;;;8.75;;
37645;SDS011;23489;49.600;6.138;2023-03-01T16:45:51;11.35;;;8.05;;
37645;SDS011;23489;49.600;6.138;2023-03-01T16:48:17;11.85;;;7.93;;
37645;SDS011;23489;49.600;6.138;2023-03-01T16:50:43;11.05;;;7.32;;